Homestead, FL (33033)

5:47 AM EDT on September 24, 2019 (GMT -0400)
Leisure City | | Change Station
Active Advisory: Coastal Hazard Statement Active Notice: Coastal Hazard Statement

Elev 23 ft 25.49 °N, 80.43 °W | Updated 43 seconds ago

Partly Cloudy
Partly Cloudy
71.8 °F
Feels Like 71.8 °F
N
2
Wind Variable Wind from NW
Gusts 3.0 mph

Today
High -- | Low -- °F
--% Chance of Precip.
Yesterday
High -- | Low -- °F
Precip. -- in
Pressure 29.87 in
Visibility 10.0 miles
Clouds Few 4200 ft
Dew Point 69 °F
Humidity 90%
Rainfall 0.00 in
Snow Depth Not available.
7:11 AM 7:16 PM
Waning Crescent, 26% visible
METAR KHST 240856Z AUTO 31006KT 10SM FEW042 22/20 A2986 RMK AO2 SLP115 T02210202 56007 FZRANO TSNO $
Pressure 29.87 in
Visibility 10.0 miles
Clouds Few 4200 ft
Dew Point 69 °F
Humidity 90%
Rainfall 0.00 in
Snow Depth Not available.
7:11 AM 7:16 PM
Waning Crescent, 26% visible
METAR KHST 240856Z AUTO 31006KT 10SM FEW042 22/20 A2986 RMK AO2 SLP115 T02210202 56007 FZRANO TSNO $

Get Your Daily Forecast Email!

Thanks for signing up!

Be on the lookout for a verification email in your inbox.

You'll start receiving severe weather alerts in your inbox..

×

10-Day Weather Forecast

Almanac

Astronomy

Sep. 24, 2019 Rise Set
Actual Time
Civil Twilight
Nautical Twilight
Astronomical Twilight
Moon
Length of Visible Light
Length of Day
Tomorrow will be .
, % of the Moon is Illuminated

Today's Extremes

State Highs State Lows

Community

WunderPhotos

Category 6

Welcome to Category 6. This is the collective home for Weather Underground's featured writeups by Dr. Jeff Masters (right), Bob Henson (left), Chris Burt, and other regular contributors.

Nearby

Air Quality

  Air Quality AQ Index Pollutant
Not available.

Snow Depth

Station Depth Elevation

Earthquake Activity

City Distance Mag. Time & Date
Minimum magnitude displayed is 2.5.

Coastal Water Temperatures

Place Temperature

Stations

Nearby Weather Stations

Station Location Temp. Windchill Dew Point Humidity Wind Precip. Elev Updated Type
                   

Watches & Warnings

Coastal Hazard Statement
Issued: 3:10 AM EDT Sep. 24, 2019 – National Weather Service

... High rip current risk remains in effect through this evening...

* timing... through at least this evening.

* Impacts... life threatening rip currents will pose a hazard to
swimmers.

Precautionary/preparedness actions...

There is a high risk of rip currents.

Rip currents are powerful channels of water flowing quickly away
from shore, which occur most often at low spots or breaks in The
Sandbar and in the vicinity of structures such as groins, jetties
and piers. Heed the advice of lifeguards, beach patrol flags and
signs.

Swim near a lifeguard. If caught in a rip current, relax and
float. Don't swim against the current. If able, swim in a
direction following the shoreline. If unable to escape, face the
shore and call or wave for help.




Http://www.Weather.Gov/Miami